Logo AVAMET
Benvolgut visitant, si us plau, ingressa Recuperar contrasenya

Vilafamés Ajuntament

Dades diàries. Acumulats / Últims 30 dies disponibles

Data Temperatura (°C) Humitat rel. (%) Pressió rel. (hPa) Vent (km/h) Precipitació
Mínima Mitjana Màxima Amplitud
tèrmica
Mínima Mitjana Màxima Mínima Mitjana Màxima Predom. Mitjana Ràfega
màxima
Total
(mm)
Índex-n
Mínima Mitjana Màxima Mínima Mitjana Màxima n
0 a 1
P0 max
mm 5'
Dades mensuals acumulades fins l'últim dia disponible
01/2020 1,8 4,6 7,0 8,5 7,8 13,7 17,4 15,6 33 73 98 1.008 1.021 1.028   6,0 90,1 154,2
Dades anuals acumulades fins l'últim dia disponible
2020 1,8 4,6 7,0 8,5 7,8 13,7 17,4 15,6 33 73 98 1.008 1.021 1.028   6,0 90,1 154,2
Últims 30 dies disponibles
21-01-2020 3,6     6,8     11,4 7,8 95 97 98 1.008 1.013 1.018 S 18,3 78,9 110,4 0,37 4,30
20-01-2020 1,8     4,1     7,8 6,0 47 87 96 1.016 1.018 1.019 NE 29,8 90,1 27,6 0,58 1,00
19-01-2020 3,9     6,9     10,2 6,3 48 80 96 1.010 1.013 1.017 ENE 14,8 61,2 16,0 0,51 0,70
18-01-2020 5,8     10,1     15,7 9,9 48 62 86 1.013 1.020 1.026 ESE 5,0 38,6 0,0
17-01-2020 6,3     12,0     17,3 11,0 36 56 92 1.019 1.022 1.026 ESE 5,8 37,0 0,0
16-01-2020 6,6     10,7     16,9 10,3 52 69 92 1.020 1.022 1.023 ESE 2,6 12,9 0,0
15-01-2020 2,7     8,0     14,7 12,0 48 66 84 1.017 1.019 1.022 ESE 2,1 12,9 0,0
14-01-2020 3,2     7,6     14,2 11,0 37 63 90 1.015 1.016 1.018 ESE 2,3 16,1 0,0
13-01-2020 2,9     7,2     14,1 11,2 33 61 93 1.016 1.019 1.024 ESE 2,1 11,3 0,0
12-01-2020 2,6     7,2     13,7 11,1 40 65 91 1.023 1.024 1.026 ESE 2,9 16,1 0,0
11-01-2020 4,1     9,2     13,8 9,7 36 59 80 1.023 1.024 1.026 WSW 5,0 25,7 0,0
10-01-2020 5,3     9,4     11,4 6,1 50 68 95 1.017 1.020 1.024 ENE 10,8 56,3 0,0
09-01-2020 4,0     8,3     13,6 9,6 63 80 91 1.019 1.022 1.025 ESE 3,1 19,3 0,0
08-01-2020 4,9     8,7     13,7 8,8 63 80 93 1.022 1.024 1.027 ESE 1,6 12,9 0,0
07-01-2020 3,6     8,2     15,9 12,3 59 85 96 1.023 1.024 1.026 ESE 1,9 17,7 0,2
06-01-2020 4,8     8,2     13,8 9,0 63 80 94 1.022 1.023 1.025 ESE 1,8 16,1 0,0
05-01-2020 7,0     10,8     17,4 10,4 37 58 91 1.021 1.023 1.025 ESE 3,1 16,1 0,0
04-01-2020 6,7     10,9     15,6 8,9 47 64 95 1.025 1.026 1.028 W 4,7 19,3 0,0
03-01-2020 4,3     7,6     12,4 8,1 75 88 94 1.024 1.025 1.027 ESE 1,9 16,1 0,0
02-01-2020 6,6     8,6     12,0 5,4 73 85 91 1.024 1.026 1.027 W 1,9 16,1 0,0
01-01-2020 4,9     8,1     11,2 6,3 82 92 96 1.025 1.026 1.028 WSW 3,5 24,1 0,0
31-12-2019 6,0     8,4     12,1 6,1 75 87 94 1.026 1.027 1.029 SSO 3,2 19,3 0,0
30-12-2019 6,3     9,0     12,7 6,4 68 83 93 1.026 1.027 1.029 WSW 2,6 24,1 0,0
29-12-2019 3,8     8,3     13,6 9,8 67 85 94 1.024 1.026 1.028 W 2,3 20,9 0,0
28-12-2019 1,9     7,5     13,8 11,9 46 81 95 1.023 1.024 1.027 ESE 2,1 17,7 0,0
27-12-2019 6,1     10,0     16,6 10,5 41 68 96 1.021 1.023 1.024 ESE 1,8 16,1 0,0
26-12-2019 10,3     15,9     21,6 11,3 30 51 87 1.016 1.018 1.023 WSW 3,5 22,5 0,0
25-12-2019 10,4     14,5     20,6 10,2 33 50 78 1.016 1.018 1.020 ESE 3,2 17,7 0,0
24-12-2019 10,1     15,3     21,8 11,7 43 60 72 1.019 1.020 1.022 ESE 2,9 22,5 0,0
23-12-2019 9,9     14,3     17,4 7,5 37 47 61 1.011 1.017 1.020 NW 7,1 59,5 0,0
Últims 13 mesos disponibles
12/2019 1,9 8,8 16,3 12,3 9,8 16,2 23,4 21,5 41 68 94 994 1.012 1.027 ESE 7,6 98,2 118,2
11/2019 5,2 9,6 16,6 13,4 12,2 17,2 25,2 20,0 41 53 75 990 1.002 1.010 NW 13,3 91,7 4,0
10/2019 8,9 14,4 18,7 18,4 13,8 22,9 29,1 20,2 45 68 88 1.000 1.010 1.015 SE 5,2 74,0 22,0
09/2019 13,1 17,7 21,0 21,6 19,2 26,1 30,7 17,6 47 69 86 1.003 1.011 1.020 E 6,1 69,2 58,2
08/2019 16,2 19,9 25,2 24,6 24,1 29,6 36,2 20,0 46 67 82 1.004 1.009 1.014 SE 5,1 114,3 25,0
07/2019 18,3 20,6 23,0 25,5 25,9 30,8 36,3 18,0 37 56 77 999 1.007 1.014 SE 5,4 72,4 13,0
06/2019 12,0 16,3 22,3 21,6 19,1 26,9 37,7 25,7 26 55 77 1.001 1.009 1.015 ESE 6,2 69,2 0,0
05/2019 7,8 12,3 16,1 16,8 15,2 21,7 27,4 19,6 42 62 85 998 1.009 1.018 ESE 7,4 77,2 23,2
04/2019 6,2 9,7 13,3 13,3 12,8 17,6 25,6 19,4 41 63 93 992 1.007 1.019 ESE 10,8 72,4 99,4
03/2019 5,7 8,6 13,8 13,5 10,4 18,7 25,4 19,7 32 51 88 1.003 1.016 1.023 ESE 7,0 86,9 18,8
02/2019 2,9 6,4 12,4 11,0 8,8 16,5 24,8 21,9 35 59 82 986 1.018 1.028 ESE 7,4 122,3 0,6
01/2019 2,6 6,4 12,1 10,2 8,9 14,2 19,5 16,9 21 52 81 994 1.012 1.025 NNW 11,3 117,5 2,6
12/2018 3,4 8,0 11,6 12,3 11,2 17,0 23,5 20,1 38 68 90 1.001 1.018 1.024 ESE 3,4 88,5 7,6
Tots els anys disponibles
2019 1,9 12,6 25,2 16,9 8,8 21,6 37,7 35,8 21 60 94 986 1.010 1.028 ESE 7,7 122,3 385,0
2018 0,0 12,7 26,1 16,8 5,3 21,2 34,6 34,6 ESE 7,1 104,6 672,2
2017 -0,3 12,3 23,6 16,8 6,3 21,7 36,0 36,3 ESE 7,0 122,3 250,8
2016
2014
Temperatura (°C)
Humitat relativa (%)
Velocitat del vent i ràfega màxima (km/h)
Direcció del vent (°)
Pressió (hPa)
Precipitació (mm)
Nota sobre les dades: s'avisa a l'usuari de la provisionalitat i no oficialitat d'aquestes dades
Logo AVAMET blanc
Web allotjada a Sollutia
Llicència de Creative CommonsLa web d'AVAMET i els seus continguts estan subjectes a una llicència de
Reconeixement - No Comercial - Compartir igual
Últimes estacions: Xixona - Els Ameradors (Soci), Agres - El Tossal (Soci), Xàbia - Bevenguts (MeteoXàbia), Llíria (Aj. Soci/Inforatge), Orihuela - Lo Capitán, Cox & Guardamar del Segura - horta (Meteorihuela), l'Alcúdia - Carriona & el Real de Gandia (Inforatge), Benicàssim - les Vil·les (Soci),  l'Alfàs del Pi - l'Albir (Soci), - - -